sensor_id;sensor_type;location;lat;lon;timestamp;temperature;humidity
49615;DHT22;35517;45.272;9.984;2024-02-28T00:01:37;9.70;99.90
49615;DHT22;35517;45.272;9.984;2024-02-28T00:04:04;9.80;99.90
49615;DHT22;35517;45.272;9.984;2024-02-28T00:06:30;9.70;99.90
49615;DHT22;35517;45.272;9.984;2024-02-28T00:08:57;9.80;99.90
49615;DHT22;35517;45.272;9.984;2024-02-28T00:11:23;9.80;99.90
49615;DHT22;35517;45.272;9.984;2024-02-28T00:13:49;9.80;99.90
49615;DHT22;35517;45.272;9.984;2024-02-28T00:16:15;9.80;99.90
49615;DHT22;35517;45.272;9.984;2024-02-28T00:18:41;9.70;99.90
49615;DHT22;35517;45.272;9.984;2024-02-28T00:21:08;9.80;99.90
49615;DHT22;35517;45.272;9.984;2024-02-28T00:23:34;9.80;99.90
49615;DHT22;35517;45.272;9.984;2024-02-28T00:26:00;9.80;99.90
49615;DHT22;35517;45.272;9.984;2024-02-28T00:28:27;9.80;99.90
49615;DHT22;35517;45.272;9.984;2024-02-28T00:30:53;9.80;99.90
49615;DHT22;35517;45.272;9.984;2024-02-28T00:33:20;9.80;99.90
49615;DHT22;35517;45.272;9.984;2024-02-28T00:35:47;9.90;99.90
49615;DHT22;35517;45.272;9.984;2024-02-28T00:38:13;9.90;99.90
49615;DHT22;35517;45.272;9.984;2024-02-28T00:40:39;9.90;99.90
49615;DHT22;35517;45.272;9.984;2024-02-28T00:43:06;9.80;99.90
49615;DHT22;35517;45.272;9.984;2024-02-28T00:45:33;9.90;99.90
49615;DHT22;35517;45.272;9.984;2024-02-28T00:47:59;9.90;99.90
49615;DHT22;35517;45.272;9.984;2024-02-28T00:50:25;9.80;99.90
49615;DHT22;35517;45.272;9.984;2024-02-28T00:52:51;9.90;99.90
49615;DHT22;35517;45.272;9.984;2024-02-28T00:55:18;9.90;99.90
49615;DHT22;35517;45.272;9.984;2024-02-28T00:57:44;9.90;99.90
49615;DHT22;35517;45.272;9.984;2024-02-28T01:00:11;9.90;99.90
49615;DHT22;35517;45.272;9.984;2024-02-28T01:02:37;9.90;99.90
49615;DHT22;35517;45.272;9.984;2024-02-28T01:05:04;9.90;99.90
49615;DHT22;35517;45.272;9.984;2024-02-28T01:07:30;9.90;99.90
49615;DHT22;35517;45.272;9.984;2024-02-28T01:09:56;9.90;99.90
49615;DHT22;35517;45.272;9.984;2024-02-28T01:12:22;10.00;99.90
49615;DHT22;35517;45.272;9.984;2024-02-28T01:14:49;9.90;99.90
49615;DHT22;35517;45.272;9.984;2024-02-28T01:17:15;10.00;99.90
49615;DHT22;35517;45.272;9.984;2024-02-28T01:19:41;10.00;99.90
49615;DHT22;35517;45.272;9.984;2024-02-28T01:22:07;9.90;99.90
49615;DHT22;35517;45.272;9.984;2024-02-28T01:24:34;10.00;99.90
49615;DHT22;35517;45.272;9.984;2024-02-28T01:27:01;10.00;99.90
49615;DHT22;35517;45.272;9.984;2024-02-28T01:29:27;10.00;99.90
49615;DHT22;35517;45.272;9.984;2024-02-28T01:31:53;10.00;99.90
49615;DHT22;35517;45.272;9.984;2024-02-28T01:34:20;10.00;99.90
49615;DHT22;35517;45.272;9.984;2024-02-28T01:36:46;10.00;99.90
49615;DHT22;35517;45.272;9.984;2024-02-28T01:39:12;10.00;99.90
49615;DHT22;35517;45.272;9.984;2024-02-28T01:41:38;10.00;99.90
49615;DHT22;35517;45.272;9.984;2024-02-28T01:44:05;10.00;99.90
49615;DHT22;35517;45.272;9.984;2024-02-28T01:46:31;10.00;99.90
49615;DHT22;35517;45.272;9.984;2024-02-28T01:48:58;10.00;99.90
49615;DHT22;35517;45.272;9.984;2024-02-28T01:51:26;10.00;99.90
49615;DHT22;35517;45.272;9.984;2024-02-28T01:53:56;10.10;99.90
49615;DHT22;35517;45.272;9.984;2024-02-28T01:56:23;10.10;99.90
49615;DHT22;35517;45.272;9.984;2024-02-28T01:58:51;10.10;99.90
49615;DHT22;35517;45.272;9.984;2024-02-28T02:01:18;10.10;99.90
49615;DHT22;35517;45.272;9.984;2024-02-28T02:03:50;10.00;99.90
49615;DHT22;35517;45.272;9.984;2024-02-28T02:06:16;10.10;99.90
49615;DHT22;35517;45.272;9.984;2024-02-28T02:08:42;10.10;99.90
49615;DHT22;35517;45.272;9.984;2024-02-28T02:11:09;10.10;99.90
49615;DHT22;35517;45.272;9.984;2024-02-28T02:13:35;10.10;99.90
49615;DHT22;35517;45.272;9.984;2024-02-28T02:16:02;10.10;99.90
49615;DHT22;35517;45.272;9.984;2024-02-28T02:18:28;10.10;99.90
49615;DHT22;35517;45.272;9.984;2024-02-28T02:21:00;10.10;99.90
49615;DHT22;35517;45.272;9.984;2024-02-28T02:23:28;10.20;99.90
49615;DHT22;35517;45.272;9.984;2024-02-28T02:25:54;10.10;99.90
49615;DHT22;35517;45.272;9.984;2024-02-28T02:28:20;10.20;99.90
49615;DHT22;35517;45.272;9.984;2024-02-28T02:30:47;10.20;99.90
49615;DHT22;35517;45.272;9.984;2024-02-28T02:33:13;10.20;99.90
49615;DHT22;35517;45.272;9.984;2024-02-28T02:35:39;10.20;99.90
49615;DHT22;35517;45.272;9.984;2024-02-28T02:38:05;10.10;99.90
49615;DHT22;35517;45.272;9.984;2024-02-28T02:40:32;10.10;99.90
49615;DHT22;35517;45.272;9.984;2024-02-28T02:42:58;10.20;99.90
49615;DHT22;35517;45.272;9.984;2024-02-28T02:45:25;10.20;99.90
49615;DHT22;35517;45.272;9.984;2024-02-28T02:47:51;10.10;99.90
49615;DHT22;35517;45.272;9.984;2024-02-28T02:50:17;10.10;99.90
49615;DHT22;35517;45.272;9.984;2024-02-28T02:52:43;10.10;99.90
49615;DHT22;35517;45.272;9.984;2024-02-28T02:55:09;10.20;99.90
49615;DHT22;35517;45.272;9.984;2024-02-28T02:57:36;10.20;99.90
49615;DHT22;35517;45.272;9.984;2024-02-28T03:00:02;10.20;99.90
49615;DHT22;35517;45.272;9.984;2024-02-28T03:02:29;10.20;99.90
49615;DHT22;35517;45.272;9.984;2024-02-28T03:04:55;10.20;99.90
49615;DHT22;35517;45.272;9.984;2024-02-28T03:07:21;10.20;99.90
49615;DHT22;35517;45.272;9.984;2024-02-28T03:09:48;10.20;99.90
49615;DHT22;35517;45.272;9.984;2024-02-28T03:12:14;10.30;99.90
49615;DHT22;35517;45.272;9.984;2024-02-28T03:14:40;10.20;99.90
49615;DHT22;35517;45.272;9.984;2024-02-28T03:17:07;10.30;99.90
49615;DHT22;35517;45.272;9.984;2024-02-28T03:19:33;10.20;99.90
49615;DHT22;35517;45.272;9.984;2024-02-28T03:22:01;10.20;99.90
49615;DHT22;35517;45.272;9.984;2024-02-28T03:24:28;10.20;99.90
49615;DHT22;35517;45.272;9.984;2024-02-28T03:26:54;10.20;99.90
49615;DHT22;35517;45.272;9.984;2024-02-28T03:29:20;10.30;99.90
49615;DHT22;35517;45.272;9.984;2024-02-28T03:31:46;10.30;99.90
49615;DHT22;35517;45.272;9.984;2024-02-28T03:34:13;10.30;99.90
49615;DHT22;35517;45.272;9.984;2024-02-28T03:36:39;10.30;99.90
49615;DHT22;35517;45.272;9.984;2024-02-28T03:39:05;10.30;99.90
49615;DHT22;35517;45.272;9.984;2024-02-28T03:41:32;10.30;99.90
49615;DHT22;35517;45.272;9.984;2024-02-28T03:43:58;10.20;99.90
49615;DHT22;35517;45.272;9.984;2024-02-28T03:46:24;10.30;99.90
49615;DHT22;35517;45.272;9.984;2024-02-28T03:48:50;10.30;99.90
49615;DHT22;35517;45.272;9.984;2024-02-28T03:51:16;10.30;99.90
49615;DHT22;35517;45.272;9.984;2024-02-28T03:53:43;10.30;99.90
49615;DHT22;35517;45.272;9.984;2024-02-28T03:56:11;10.30;99.90
49615;DHT22;35517;45.272;9.984;2024-02-28T03:58:38;10.30;99.90
49615;DHT22;35517;45.272;9.984;2024-02-28T04:01:05;10.30;99.90
49615;DHT22;35517;45.272;9.984;2024-02-28T04:03:31;10.30;99.90
49615;DHT22;35517;45.272;9.984;2024-02-28T04:05:57;10.30;99.90
49615;DHT22;35517;45.272;9.984;2024-02-28T04:08:24;10.40;99.90
49615;DHT22;35517;45.272;9.984;2024-02-28T04:10:50;10.30;99.90
49615;DHT22;35517;45.272;9.984;2024-02-28T04:13:17;10.30;99.90
49615;DHT22;35517;45.272;9.984;2024-02-28T04:15:43;10.30;99.90
49615;DHT22;35517;45.272;9.984;2024-02-28T04:18:11;10.30;99.90
49615;DHT22;35517;45.272;9.984;2024-02-28T04:20:37;10.30;99.90
49615;DHT22;35517;45.272;9.984;2024-02-28T04:23:04;10.40;99.90
49615;DHT22;35517;45.272;9.984;2024-02-28T04:25:30;10.30;99.90
49615;DHT22;35517;45.272;9.984;2024-02-28T04:27:57;10.30;99.90
49615;DHT22;35517;45.272;9.984;2024-02-28T04:30:23;10.30;99.90
49615;DHT22;35517;45.272;9.984;2024-02-28T04:32:49;10.40;99.90
49615;DHT22;35517;45.272;9.984;2024-02-28T04:35:15;10.30;99.90
49615;DHT22;35517;45.272;9.984;2024-02-28T04:37:47;10.40;99.90
49615;DHT22;35517;45.272;9.984;2024-02-28T04:40:14;10.40;99.90
49615;DHT22;35517;45.272;9.984;2024-02-28T04:42:42;10.40;99.90
49615;DHT22;35517;45.272;9.984;2024-02-28T04:45:09;10.40;99.90
49615;DHT22;35517;45.272;9.984;2024-02-28T04:47:36;10.40;99.90
49615;DHT22;35517;45.272;9.984;2024-02-28T04:50:03;10.40;99.90
49615;DHT22;35517;45.272;9.984;2024-02-28T04:52:32;10.50;99.90
49615;DHT22;35517;45.272;9.984;2024-02-28T04:54:59;10.40;99.90
49615;DHT22;35517;45.272;9.984;2024-02-28T04:57:25;10.40;99.90
49615;DHT22;35517;45.272;9.984;2024-02-28T04:59:52;10.30;99.90
49615;DHT22;35517;45.272;9.984;2024-02-28T05:02:18;10.40;99.90
49615;DHT22;35517;45.272;9.984;2024-02-28T05:04:45;10.30;99.90
49615;DHT22;35517;45.272;9.984;2024-02-28T05:07:11;10.30;99.90
49615;DHT22;35517;45.272;9.984;2024-02-28T05:09:37;10.40;99.90
49615;DHT22;35517;45.272;9.984;2024-02-28T05:12:03;10.40;99.90
49615;DHT22;35517;45.272;9.984;2024-02-28T05:14:30;10.40;99.90
49615;DHT22;35517;45.272;9.984;2024-02-28T05:16:58;10.30;99.90
49615;DHT22;35517;45.272;9.984;2024-02-28T05:19:24;10.40;99.90
49615;DHT22;35517;45.272;9.984;2024-02-28T05:21:50;10.50;99.90
49615;DHT22;35517;45.272;9.984;2024-02-28T05:24:17;10.50;99.90
49615;DHT22;35517;45.272;9.984;2024-02-28T05:26:43;10.50;99.90
49615;DHT22;35517;45.272;9.984;2024-02-28T05:29:09;10.50;99.90
49615;DHT22;35517;45.272;9.984;2024-02-28T05:31:37;10.50;99.90
49615;DHT22;35517;45.272;9.984;2024-02-28T05:34:04;10.50;99.90
49615;DHT22;35517;45.272;9.984;2024-02-28T05:36:30;10.50;99.90
49615;DHT22;35517;45.272;9.984;2024-02-28T05:38:59;10.50;99.90
49615;DHT22;35517;45.272;9.984;2024-02-28T05:41:26;10.50;99.90
49615;DHT22;35517;45.272;9.984;2024-02-28T05:43:52;10.50;99.90
49615;DHT22;35517;45.272;9.984;2024-02-28T05:46:18;10.50;99.90
49615;DHT22;35517;45.272;9.984;2024-02-28T05:48:45;10.50;99.90
49615;DHT22;35517;45.272;9.984;2024-02-28T05:51:12;10.60;99.90
49615;DHT22;35517;45.272;9.984;2024-02-28T05:53:39;10.60;99.90
49615;DHT22;35517;45.272;9.984;2024-02-28T05:56:07;10.60;99.90
49615;DHT22;35517;45.272;9.984;2024-02-28T05:58:40;10.60;99.90
49615;DHT22;35517;45.272;9.984;2024-02-28T06:01:07;10.50;99.90
49615;DHT22;35517;45.272;9.984;2024-02-28T06:03:33;10.50;99.90
49615;DHT22;35517;45.272;9.984;2024-02-28T06:06:00;10.60;99.90
49615;DHT22;35517;45.272;9.984;2024-02-28T06:08:27;10.50;99.90
49615;DHT22;35517;45.272;9.984;2024-02-28T06:10:53;10.50;99.90
49615;DHT22;35517;45.272;9.984;2024-02-28T06:13:19;10.50;99.90
49615;DHT22;35517;45.272;9.984;2024-02-28T06:15:45;10.50;99.90
49615;DHT22;35517;45.272;9.984;2024-02-28T06:18:12;10.50;99.90
49615;DHT22;35517;45.272;9.984;2024-02-28T06:20:41;10.50;99.90
49615;DHT22;35517;45.272;9.984;2024-02-28T06:23:08;10.50;99.90
49615;DHT22;35517;45.272;9.984;2024-02-28T06:25:34;10.50;99.90
49615;DHT22;35517;45.272;9.984;2024-02-28T06:28:00;10.50;99.90
49615;DHT22;35517;45.272;9.984;2024-02-28T06:30:28;10.50;99.90
49615;DHT22;35517;45.272;9.984;2024-02-28T06:32:54;10.50;99.90
49615;DHT22;35517;45.272;9.984;2024-02-28T06:35:21;10.50;99.90
49615;DHT22;35517;45.272;9.984;2024-02-28T06:37:47;10.50;99.90
49615;DHT22;35517;45.272;9.984;2024-02-28T06:40:16;10.50;99.90
49615;DHT22;35517;45.272;9.984;2024-02-28T06:42:42;10.50;99.90
49615;DHT22;35517;45.272;9.984;2024-02-28T06:45:08;10.50;99.90
49615;DHT22;35517;45.272;9.984;2024-02-28T06:47:35;10.50;99.90
49615;DHT22;35517;45.272;9.984;2024-02-28T06:50:06;10.60;99.90
49615;DHT22;35517;45.272;9.984;2024-02-28T06:52:33;10.50;99.90
49615;DHT22;35517;45.272;9.984;2024-02-28T06:55:01;10.50;99.90
49615;DHT22;35517;45.272;9.984;2024-02-28T06:57:29;10.60;99.90
49615;DHT22;35517;45.272;9.984;2024-02-28T06:59:55;10.60;99.90
49615;DHT22;35517;45.272;9.984;2024-02-28T07:02:21;10.60;99.90
49615;DHT22;35517;45.272;9.984;2024-02-28T07:04:48;10.60;99.90
49615;DHT22;35517;45.272;9.984;2024-02-28T07:07:14;10.60;99.90
49615;DHT22;35517;45.272;9.984;2024-02-28T07:09:40;10.60;99.90
49615;DHT22;35517;45.272;9.984;2024-02-28T07:12:06;10.60;99.90
49615;DHT22;35517;45.272;9.984;2024-02-28T07:14:33;10.60;99.90
49615;DHT22;35517;45.272;9.984;2024-02-28T07:16:59;10.70;99.90
49615;DHT22;35517;45.272;9.984;2024-02-28T07:19:25;10.70;99.90
49615;DHT22;35517;45.272;9.984;2024-02-28T07:21:51;10.80;99.90
49615;DHT22;35517;45.272;9.984;2024-02-28T07:24:17;10.70;99.90
49615;DHT22;35517;45.272;9.984;2024-02-28T07:26:43;10.80;99.90
49615;DHT22;35517;45.272;9.984;2024-02-28T07:29:11;10.80;99.90
49615;DHT22;35517;45.272;9.984;2024-02-28T07:31:38;10.80;99.90
49615;DHT22;35517;45.272;9.984;2024-02-28T07:34:04;10.80;99.90
49615;DHT22;35517;45.272;9.984;2024-02-28T07:36:31;10.90;99.90
49615;DHT22;35517;45.272;9.984;2024-02-28T07:38:57;10.90;99.90
49615;DHT22;35517;45.272;9.984;2024-02-28T07:41:23;10.90;99.90
49615;DHT22;35517;45.272;9.984;2024-02-28T07:43:49;10.90;99.90
49615;DHT22;35517;45.272;9.984;2024-02-28T07:46:16;11.00;99.90
49615;DHT22;35517;45.272;9.984;2024-02-28T07:48:42;10.90;99.90
49615;DHT22;35517;45.272;9.984;2024-02-28T07:51:09;11.00;99.90
49615;DHT22;35517;45.272;9.984;2024-02-28T07:53:35;11.00;99.90
49615;DHT22;35517;45.272;9.984;2024-02-28T07:56:02;11.00;99.90
49615;DHT22;35517;45.272;9.984;2024-02-28T07:58:28;11.00;99.90
49615;DHT22;35517;45.272;9.984;2024-02-28T08:00:55;11.10;99.90
49615;DHT22;35517;45.272;9.984;2024-02-28T08:03:21;11.10;99.90
49615;DHT22;35517;45.272;9.984;2024-02-28T08:05:47;11.10;99.90
49615;DHT22;35517;45.272;9.984;2024-02-28T08:08:14;11.10;99.90
49615;DHT22;35517;45.272;9.984;2024-02-28T08:10:41;11.10;99.90
49615;DHT22;35517;45.272;9.984;2024-02-28T08:13:07;11.20;99.90
49615;DHT22;35517;45.272;9.984;2024-02-28T08:15:36;11.20;99.90
49615;DHT22;35517;45.272;9.984;2024-02-28T08:18:02;11.10;99.90
49615;DHT22;35517;45.272;9.984;2024-02-28T08:20:28;11.20;99.90
49615;DHT22;35517;45.272;9.984;2024-02-28T08:22:54;11.20;99.90
49615;DHT22;35517;45.272;9.984;2024-02-28T08:25:23;11.20;99.90
49615;DHT22;35517;45.272;9.984;2024-02-28T08:27:49;11.20;99.90
49615;DHT22;35517;45.272;9.984;2024-02-28T08:30:15;11.30;99.90
49615;DHT22;35517;45.272;9.984;2024-02-28T08:32:42;11.20;99.90
49615;DHT22;35517;45.272;9.984;2024-02-28T08:35:08;11.30;99.90
49615;DHT22;35517;45.272;9.984;2024-02-28T08:37:38;11.30;99.90
49615;DHT22;35517;45.272;9.984;2024-02-28T08:40:06;11.30;99.90
49615;DHT22;35517;45.272;9.984;2024-02-28T08:42:32;11.40;99.90
49615;DHT22;35517;45.272;9.984;2024-02-28T08:45:00;11.40;99.90
49615;DHT22;35517;45.272;9.984;2024-02-28T08:47:27;11.40;99.90
49615;DHT22;35517;45.272;9.984;2024-02-28T08:49:53;11.50;99.90
49615;DHT22;35517;45.272;9.984;2024-02-28T08:52:20;11.50;99.90
49615;DHT22;35517;45.272;9.984;2024-02-28T08:54:47;11.50;99.90
49615;DHT22;35517;45.272;9.984;2024-02-28T08:57:14;11.50;99.90
49615;DHT22;35517;45.272;9.984;2024-02-28T08:59:42;11.60;99.90
49615;DHT22;35517;45.272;9.984;2024-02-28T09:02:08;11.60;99.90
49615;DHT22;35517;45.272;9.984;2024-02-28T09:04:37;11.50;99.90
49615;DHT22;35517;45.272;9.984;2024-02-28T09:07:03;11.80;99.90
49615;DHT22;35517;45.272;9.984;2024-02-28T09:09:29;11.80;99.90
49615;DHT22;35517;45.272;9.984;2024-02-28T09:12:00;11.90;99.90
49615;DHT22;35517;45.272;9.984;2024-02-28T09:14:29;11.90;99.90
49615;DHT22;35517;45.272;9.984;2024-02-28T09:16:55;12.00;99.90
49615;DHT22;35517;45.272;9.984;2024-02-28T09:19:29;12.00;99.90
49615;DHT22;35517;45.272;9.984;2024-02-28T09:21:56;12.10;99.90
49615;DHT22;35517;45.272;9.984;2024-02-28T09:24:24;12.10;99.90
49615;DHT22;35517;45.272;9.984;2024-02-28T09:26:50;12.10;99.90
49615;DHT22;35517;45.272;9.984;2024-02-28T09:29:16;12.10;99.90
49615;DHT22;35517;45.272;9.984;2024-02-28T09:31:43;12.10;99.90
49615;DHT22;35517;45.272;9.984;2024-02-28T09:34:09;12.10;99.90
49615;DHT22;35517;45.272;9.984;2024-02-28T09:36:42;12.10;99.90
49615;DHT22;35517;45.272;9.984;2024-02-28T09:39:10;12.10;99.90
49615;DHT22;35517;45.272;9.984;2024-02-28T09:41:36;12.10;99.90
49615;DHT22;35517;45.272;9.984;2024-02-28T09:44:03;12.20;99.90
49615;DHT22;35517;45.272;9.984;2024-02-28T09:46:29;12.30;99.90
49615;DHT22;35517;45.272;9.984;2024-02-28T09:48:56;12.20;99.90
49615;DHT22;35517;45.272;9.984;2024-02-28T09:51:22;12.10;99.90
49615;DHT22;35517;45.272;9.984;2024-02-28T09:53:53;12.20;99.90
49615;DHT22;35517;45.272;9.984;2024-02-28T09:56:20;12.20;99.90
49615;DHT22;35517;45.272;9.984;2024-02-28T09:58:47;12.20;99.90
49615;DHT22;35517;45.272;9.984;2024-02-28T10:01:15;12.20;99.90
49615;DHT22;35517;45.272;9.984;2024-02-28T10:03:44;12.40;99.90
49615;DHT22;35517;45.272;9.984;2024-02-28T10:06:11;12.30;99.90
49615;DHT22;35517;45.272;9.984;2024-02-28T10:08:39;12.40;99.90
49615;DHT22;35517;45.272;9.984;2024-02-28T10:11:06;12.40;99.90
49615;DHT22;35517;45.272;9.984;2024-02-28T10:13:32;12.40;99.90
49615;DHT22;35517;45.272;9.984;2024-02-28T10:15:58;12.50;99.90
49615;DHT22;35517;45.272;9.984;2024-02-28T10:18:26;12.60;99.90
49615;DHT22;35517;45.272;9.984;2024-02-28T10:20:52;12.60;99.90
49615;DHT22;35517;45.272;9.984;2024-02-28T10:23:19;12.80;99.90
49615;DHT22;35517;45.272;9.984;2024-02-28T10:25:46;12.80;99.90
49615;DHT22;35517;45.272;9.984;2024-02-28T10:28:13;12.80;99.90
49615;DHT22;35517;45.272;9.984;2024-02-28T10:30:41;12.70;99.90
49615;DHT22;35517;45.272;9.984;2024-02-28T10:33:14;12.80;99.90
49615;DHT22;35517;45.272;9.984;2024-02-28T10:35:41;12.80;99.90
49615;DHT22;35517;45.272;9.984;2024-02-28T10:38:12;12.90;99.90
49615;DHT22;35517;45.272;9.984;2024-02-28T10:40:42;13.00;99.90
49615;DHT22;35517;45.272;9.984;2024-02-28T10:43:09;12.90;99.90
49615;DHT22;35517;45.272;9.984;2024-02-28T10:45:38;12.90;99.90
49615;DHT22;35517;45.272;9.984;2024-02-28T10:48:06;13.10;99.90
49615;DHT22;35517;45.272;9.984;2024-02-28T10:50:32;13.00;99.90
49615;DHT22;35517;45.272;9.984;2024-02-28T10:53:03;12.90;99.90
49615;DHT22;35517;45.272;9.984;2024-02-28T10:55:36;13.00;99.90
49615;DHT22;35517;45.272;9.984;2024-02-28T10:58:09;12.90;99.90
49615;DHT22;35517;45.272;9.984;2024-02-28T11:00:37;12.90;99.90
49615;DHT22;35517;45.272;9.984;2024-02-28T11:03:17;12.90;99.90
49615;DHT22;35517;45.272;9.984;2024-02-28T11:05:44;12.90;99.90
49615;DHT22;35517;45.272;9.984;2024-02-28T11:08:24;12.90;99.90
49615;DHT22;35517;45.272;9.984;2024-02-28T11:10:58;13.00;99.90
49615;DHT22;35517;45.272;9.984;2024-02-28T11:13:26;13.00;99.90
49615;DHT22;35517;45.272;9.984;2024-02-28T11:15:53;13.00;99.90
49615;DHT22;35517;45.272;9.984;2024-02-28T11:18:21;13.00;99.90
49615;DHT22;35517;45.272;9.984;2024-02-28T11:20:47;13.00;99.90
49615;DHT22;35517;45.272;9.984;2024-02-28T11:23:16;13.00;99.90
49615;DHT22;35517;45.272;9.984;2024-02-28T11:25:43;13.00;99.90
49615;DHT22;35517;45.272;9.984;2024-02-28T11:28:09;13.10;99.90
49615;DHT22;35517;45.272;9.984;2024-02-28T11:30:36;13.10;99.90
49615;DHT22;35517;45.272;9.984;2024-02-28T11:33:02;13.00;99.90
49615;DHT22;35517;45.272;9.984;2024-02-28T11:35:28;13.10;99.90
49615;DHT22;35517;45.272;9.984;2024-02-28T11:37:55;13.10;99.90
49615;DHT22;35517;45.272;9.984;2024-02-28T11:40:24;13.10;99.90
49615;DHT22;35517;45.272;9.984;2024-02-28T11:42:52;13.20;99.90
49615;DHT22;35517;45.272;9.984;2024-02-28T11:45:19;13.10;99.90
49615;DHT22;35517;45.272;9.984;2024-02-28T11:47:46;13.20;99.90
49615;DHT22;35517;45.272;9.984;2024-02-28T11:50:13;13.20;99.90
49615;DHT22;35517;45.272;9.984;2024-02-28T11:52:45;13.30;99.90
49615;DHT22;35517;45.272;9.984;2024-02-28T11:55:11;13.40;99.90
49615;DHT22;35517;45.272;9.984;2024-02-28T11:57:38;13.40;99.90
49615;DHT22;35517;45.272;9.984;2024-02-28T12:00:08;13.60;99.90
49615;DHT22;35517;45.272;9.984;2024-02-28T12:02:36;13.80;99.90
49615;DHT22;35517;45.272;9.984;2024-02-28T12:05:03;13.80;99.90
49615;DHT22;35517;45.272;9.984;2024-02-28T12:07:32;14.00;99.90
49615;DHT22;35517;45.272;9.984;2024-02-28T12:09:59;14.00;99.90
49615;DHT22;35517;45.272;9.984;2024-02-28T12:12:27;14.10;99.90
49615;DHT22;35517;45.272;9.984;2024-02-28T12:15:00;14.10;99.90
49615;DHT22;35517;45.272;9.984;2024-02-28T12:17:27;14.20;99.90
49615;DHT22;35517;45.272;9.984;2024-02-28T12:19:53;14.10;99.90
49615;DHT22;35517;45.272;9.984;2024-02-28T12:22:21;14.10;99.90
49615;DHT22;35517;45.272;9.984;2024-02-28T12:24:47;14.00;99.90
49615;DHT22;35517;45.272;9.984;2024-02-28T12:27:13;13.90;99.90
49615;DHT22;35517;45.272;9.984;2024-02-28T12:29:39;13.90;99.90
49615;DHT22;35517;45.272;9.984;2024-02-28T12:32:07;13.80;99.90
49615;DHT22;35517;45.272;9.984;2024-02-28T12:34:33;13.80;99.90
49615;DHT22;35517;45.272;9.984;2024-02-28T12:37:00;13.70;99.90
49615;DHT22;35517;45.272;9.984;2024-02-28T12:39:26;13.60;99.90
49615;DHT22;35517;45.272;9.984;2024-02-28T12:41:52;13.50;99.90
49615;DHT22;35517;45.272;9.984;2024-02-28T12:44:19;13.60;99.90
49615;DHT22;35517;45.272;9.984;2024-02-28T12:46:45;13.50;99.90
49615;DHT22;35517;45.272;9.984;2024-02-28T12:49:11;13.50;99.90
49615;DHT22;35517;45.272;9.984;2024-02-28T12:51:45;13.40;99.90
49615;DHT22;35517;45.272;9.984;2024-02-28T12:54:12;13.30;99.90
49615;DHT22;35517;45.272;9.984;2024-02-28T12:56:41;13.30;99.90
49615;DHT22;35517;45.272;9.984;2024-02-28T12:59:11;13.10;99.90
49615;DHT22;35517;45.272;9.984;2024-02-28T13:01:38;13.00;99.90
49615;DHT22;35517;45.272;9.984;2024-02-28T13:04:04;12.90;99.90
49615;DHT22;35517;45.272;9.984;2024-02-28T13:06:30;12.80;99.90
49615;DHT22;35517;45.272;9.984;2024-02-28T13:08:57;12.90;99.90
49615;DHT22;35517;45.272;9.984;2024-02-28T13:11:24;12.80;99.90
49615;DHT22;35517;45.272;9.984;2024-02-28T13:13:51;12.80;99.90
49615;DHT22;35517;45.272;9.984;2024-02-28T13:16:19;12.80;99.90
49615;DHT22;35517;45.272;9.984;2024-02-28T13:18:45;12.80;99.90
49615;DHT22;35517;45.272;9.984;2024-02-28T13:21:12;12.80;99.90
49615;DHT22;35517;45.272;9.984;2024-02-28T13:23:38;12.80;99.90
49615;DHT22;35517;45.272;9.984;2024-02-28T13:26:05;12.70;99.90
49615;DHT22;35517;45.272;9.984;2024-02-28T13:28:31;12.90;99.90
49615;DHT22;35517;45.272;9.984;2024-02-28T13:31:02;12.90;99.90
49615;DHT22;35517;45.272;9.984;2024-02-28T13:33:30;12.90;99.90
49615;DHT22;35517;45.272;9.984;2024-02-28T13:35:56;12.90;99.90
49615;DHT22;35517;45.272;9.984;2024-02-28T13:38:22;12.90;99.90
49615;DHT22;35517;45.272;9.984;2024-02-28T13:40:49;12.90;99.90
49615;DHT22;35517;45.272;9.984;2024-02-28T13:43:16;13.00;99.90
49615;DHT22;35517;45.272;9.984;2024-02-28T13:45:48;12.80;99.90
49615;DHT22;35517;45.272;9.984;2024-02-28T13:48:17;12.90;99.90
49615;DHT22;35517;45.272;9.984;2024-02-28T13:50:47;13.00;99.90
49615;DHT22;35517;45.272;9.984;2024-02-28T13:53:15;13.00;99.90
49615;DHT22;35517;45.272;9.984;2024-02-28T13:55:42;12.90;99.90
49615;DHT22;35517;45.272;9.984;2024-02-28T13:58:12;13.00;99.90
49615;DHT22;35517;45.272;9.984;2024-02-28T14:00:39;12.90;99.90
49615;DHT22;35517;45.272;9.984;2024-02-28T14:03:06;12.90;99.90
49615;DHT22;35517;45.272;9.984;2024-02-28T14:05:32;12.90;99.90
49615;DHT22;35517;45.272;9.984;2024-02-28T14:07:59;12.90;99.90
49615;DHT22;35517;45.272;9.984;2024-02-28T14:10:26;13.00;99.90
49615;DHT22;35517;45.272;9.984;2024-02-28T14:12:52;13.00;99.90
49615;DHT22;35517;45.272;9.984;2024-02-28T14:15:22;12.90;99.90
49615;DHT22;35517;45.272;9.984;2024-02-28T14:17:48;13.10;99.90
49615;DHT22;35517;45.272;9.984;2024-02-28T14:20:15;13.00;99.90
49615;DHT22;35517;45.272;9.984;2024-02-28T14:22:41;13.00;99.90
49615;DHT22;35517;45.272;9.984;2024-02-28T14:25:15;13.00;99.90
49615;DHT22;35517;45.272;9.984;2024-02-28T14:27:43;13.00;99.90
49615;DHT22;35517;45.272;9.984;2024-02-28T14:30:10;13.10;99.90
49615;DHT22;35517;45.272;9.984;2024-02-28T14:32:38;13.10;99.90
49615;DHT22;35517;45.272;9.984;2024-02-28T14:35:05;13.10;99.90
49615;DHT22;35517;45.272;9.984;2024-02-28T14:37:36;13.20;99.90
49615;DHT22;35517;45.272;9.984;2024-02-28T14:40:04;12.90;99.90
49615;DHT22;35517;45.272;9.984;2024-02-28T14:42:40;13.10;99.90
49615;DHT22;35517;45.272;9.984;2024-02-28T14:45:10;13.10;99.90
49615;DHT22;35517;45.272;9.984;2024-02-28T14:47:41;13.00;99.90
49615;DHT22;35517;45.272;9.984;2024-02-28T14:50:08;13.10;99.90
49615;DHT22;35517;45.272;9.984;2024-02-28T14:52:40;13.10;99.90
49615;DHT22;35517;45.272;9.984;2024-02-28T14:55:10;13.10;99.90
49615;DHT22;35517;45.272;9.984;2024-02-28T14:57:37;13.00;99.90
49615;DHT22;35517;45.272;9.984;2024-02-28T15:00:05;13.00;99.90
49615;DHT22;35517;45.272;9.984;2024-02-28T15:02:40;13.00;99.90
49615;DHT22;35517;45.272;9.984;2024-02-28T15:05:07;13.00;99.90
49615;DHT22;35517;45.272;9.984;2024-02-28T15:07:35;13.00;99.90
49615;DHT22;35517;45.272;9.984;2024-02-28T15:10:02;13.00;99.90
49615;DHT22;35517;45.272;9.984;2024-02-28T15:12:30;13.00;99.90
49615;DHT22;35517;45.272;9.984;2024-02-28T15:14:57;13.00;99.90
49615;DHT22;35517;45.272;9.984;2024-02-28T15:17:23;12.90;99.90
49615;DHT22;35517;45.272;9.984;2024-02-28T15:19:49;12.90;99.90
49615;DHT22;35517;45.272;9.984;2024-02-28T15:22:15;12.80;99.90
49615;DHT22;35517;45.272;9.984;2024-02-28T15:24:41;12.90;99.90
49615;DHT22;35517;45.272;9.984;2024-02-28T15:27:08;12.80;99.90
49615;DHT22;35517;45.272;9.984;2024-02-28T15:29:34;12.90;99.90
49615;DHT22;35517;45.272;9.984;2024-02-28T15:32:01;12.80;99.90